Impacts TAF Board
For situational awareness. Not to be used for flight planning purposes.
IDs:

KMDW - Chicago/Midway Intl, IL, US

Issued at 0520 UTC 10 Dec 2018
Updated at 0528 UTC 10 Dec 2018
Potential Impact None Slight Moderate High
Time0453Z 10/06Z 10/07Z 10/08Z 10/09Z 10/10Z 10/11Z 10/12Z 10/13Z 10/14Z 10/15Z 10/16Z 10/17Z 10/18Z>>
Type OBS PRVL PRVL PRVL PRVL PRVL PRVL PRVL PRVL PRVL PRVL PRVL PRVL PRVL
VIS 8 5 5 1.5 1.5 0.5 0.5 0.5 0.5 1 1 1 >6 >6
CIG -- -- -- 2 2 2 2 2 2 4 4 4 -- --
Cover FEW SCT SCT BKN BKN OVC OVC OVC OVC BKN BKN BKN SCT SCT
FltCat VFR MVFR MVFR LIFR LIFR LIFR LIFR LIFR LIFR LIFR LIFR LIFR VFR VFR
WX -- BR BR BR BR FZFG FZFG FZFG FZFG BR BR BR -- --
WDir 320 300 300 290 290 280 280 280 280 260 260 260 240 240
WSpd 4 3 3 3 3 3 3 3 3 5 5 5 6 6
WGst -- -- -- -- -- -- -- -- -- -- -- -- -- --
Raw TAF
KMDW 100520Z 1006/1112 30003KT 5SM BR FEW003 SCT005
  FM100800 29003KT 1 1/2SM BR BKN002
  FM101000 28003KT 1/2SM FZFG OVC002
  FM101400 26005KT 1SM BR BKN004
  FM101700 24006KT P6SM SCT006
  FM110000 24008KT P6SM FEW250


Raw METAR
KMDW 100453Z 32004KT 8SM FEW010 M06/M08 A3031 RMK AO2 SLP279 T10611083
KMDW 100353Z 32006KT 8SM FEW010 M06/M08 A3031 RMK AO2 SLP279 T10561083
KMDW 100253Z 30005KT 8SM FEW010 M04/M08 A3032 RMK AO2 SLP282 T10441078 50001

METAR Board
Radar Display
Forecast Discussion
For situational awareness. Not to be used for flight planning purposes.